createdAt,value
2022-12-15T00:00:36.990Z,-4.94
2022-12-15T00:03:23.167Z,-5.15
2022-12-15T00:06:03.091Z,-5.13
2022-12-15T00:08:42.904Z,-5.13
2022-12-15T00:11:23.212Z,-5.10
2022-12-15T00:14:03.116Z,-5.04
2022-12-15T00:16:43.200Z,-5.03
2022-12-15T00:19:24.022Z,-5.28
2022-12-15T00:22:04.150Z,-5.35
2022-12-15T00:24:44.043Z,-5.37
2022-12-15T00:27:24.570Z,-5.34
2022-12-15T00:30:05.106Z,-5.27
2022-12-15T00:32:44.934Z,-5.23
2022-12-15T00:35:25.455Z,-5.21
2022-12-15T00:38:05.422Z,-5.13
2022-12-15T00:40:26.875Z,-5.27
2022-12-15T00:42:49.607Z,-5.37
2022-12-15T00:45:11.322Z,-5.24
2022-12-15T00:47:33.527Z,-5.19
2022-12-15T00:50:13.644Z,-5.34
2022-12-15T00:52:54.266Z,-5.47
2022-12-15T00:55:34.336Z,-5.53
2022-12-15T00:58:14.226Z,-5.68
2022-12-15T01:00:54.434Z,-5.49
2022-12-15T01:03:39.895Z,-5.67
2022-12-15T01:06:24.449Z,-5.68
2022-12-15T01:09:04.174Z,-5.76
2022-12-15T01:11:44.419Z,-5.55
2022-12-15T01:14:24.369Z,-5.43
2022-12-15T01:17:04.183Z,-5.40
2022-12-15T01:19:43.876Z,-5.33
2022-12-15T01:22:07.018Z,-5.36
2022-12-15T01:24:28.507Z,-5.29
2022-12-15T01:26:50.063Z,-5.43
2022-12-15T01:29:11.511Z,-5.41
2022-12-15T01:31:33.039Z,-5.40
2022-12-15T01:33:55.408Z,-5.32
2022-12-15T01:36:16.880Z,-5.35
2022-12-15T01:38:38.653Z,-5.21
2022-12-15T01:41:06.677Z,-5.35
2022-12-15T01:43:32.472Z,-5.32
2022-12-15T01:46:01.980Z,-5.48
2022-12-15T01:48:28.383Z,-5.32
2022-12-15T01:51:04.480Z,-5.17
2022-12-15T01:53:27.375Z,-5.31
2022-12-15T01:55:49.707Z,-5.27
2022-12-15T01:58:13.535Z,-5.30
2022-12-15T02:00:35.169Z,-5.21
2022-12-15T02:02:59.059Z,-5.19
2022-12-15T02:05:21.511Z,-5.30
2022-12-15T02:07:42.952Z,-5.26
2022-12-15T02:10:07.400Z,-5.20
2022-12-15T02:12:35.896Z,-5.48
2022-12-15T02:15:25.391Z,-5.27
2022-12-15T02:17:49.763Z,-5.22
2022-12-15T02:20:44.816Z,-5.15
2022-12-15T02:23:15.213Z,-5.15
2022-12-15T02:26:09.738Z,-5.09
2022-12-15T02:28:49.316Z,-5.05
2022-12-15T02:31:39.415Z,-5.32
2022-12-15T02:34:11.163Z,-5.19
2022-12-15T02:36:37.283Z,-5.16
2022-12-15T02:38:58.782Z,-5.19
2022-12-15T02:41:39.667Z,-5.18
2022-12-15T02:44:05.575Z,-5.17
2022-12-15T02:46:41.314Z,-5.33
2022-12-15T02:49:36.957Z,-5.41
2022-12-15T02:52:30.862Z,-5.32
2022-12-15T02:54:58.457Z,-5.31
2022-12-15T02:58:00.033Z,-5.24
2022-12-15T03:00:22.739Z,-5.32
2022-12-15T03:02:53.182Z,-5.59
2022-12-15T03:05:16.489Z,-5.44
2022-12-15T03:07:37.995Z,-5.38
2022-12-15T03:10:02.318Z,-5.54
2022-12-15T03:12:23.871Z,-5.61
2022-12-15T03:14:45.344Z,-5.48
2022-12-15T03:17:07.575Z,-5.41
2022-12-15T03:19:28.993Z,-5.39
2022-12-15T03:21:50.442Z,-5.47
2022-12-15T03:24:12.021Z,-5.42
2022-12-15T03:26:33.592Z,-5.37
2022-12-15T03:28:55.036Z,-5.34
2022-12-15T03:31:16.519Z,-5.36
2022-12-15T03:33:38.013Z,-5.49
2022-12-15T03:36:00.091Z,-5.35
2022-12-15T03:38:21.604Z,-5.37
2022-12-15T03:40:43.076Z,-5.39
2022-12-15T03:43:04.534Z,-5.39
2022-12-15T03:45:28.091Z,-5.38
2022-12-15T03:47:50.480Z,-5.45
2022-12-15T03:50:13.807Z,-5.59
2022-12-15T03:52:36.126Z,-5.52
2022-12-15T03:54:57.536Z,-5.47
2022-12-15T03:57:18.983Z,-5.56
2022-12-15T03:59:40.436Z,-5.52
2022-12-15T04:02:01.955Z,-5.52
2022-12-15T04:04:23.586Z,-5.49
2022-12-15T04:06:45.107Z,-5.51
2022-12-15T04:09:06.534Z,-5.57
2022-12-15T04:11:28.010Z,-5.58
2022-12-15T04:13:49.461Z,-5.70
2022-12-15T04:16:14.798Z,-5.64
2022-12-15T04:18:39.402Z,-5.65
2022-12-15T04:21:00.859Z,-5.63
2022-12-15T04:23:22.949Z,-5.62
2022-12-15T04:26:03.129Z,-5.67
2022-12-15T04:28:42.831Z,-5.72
2022-12-15T04:31:38.494Z,-5.84
2022-12-15T04:34:22.441Z,-5.84
2022-12-15T04:37:05.527Z,-5.75
2022-12-15T04:39:46.452Z,-5.69
2022-12-15T04:42:26.572Z,-5.82
2022-12-15T04:45:12.206Z,-5.87
2022-12-15T04:47:54.621Z,-5.85
2022-12-15T04:50:34.728Z,-5.87
2022-12-15T04:53:14.528Z,-5.88
2022-12-15T04:55:55.153Z,-5.99
2022-12-15T04:58:35.194Z,-5.94
2022-12-15T05:01:18.391Z,-5.95
2022-12-15T05:03:58.643Z,-5.97
2022-12-15T05:06:39.070Z,-5.92
2022-12-15T05:09:18.926Z,-5.88
2022-12-15T05:11:58.656Z,-5.97
2022-12-15T05:14:38.423Z,-5.94
2022-12-15T05:17:18.654Z,-6.09
2022-12-15T05:19:58.788Z,-5.99
2022-12-15T05:22:38.882Z,-5.97
2022-12-15T05:25:18.640Z,-5.90
2022-12-15T05:27:58.532Z,-5.91
2022-12-15T05:30:38.743Z,-5.86
2022-12-15T05:33:04.492Z,-5.84
2022-12-15T05:35:25.993Z,-5.83
2022-12-15T05:37:47.444Z,-5.83
2022-12-15T05:40:09.802Z,-5.93
2022-12-15T05:42:31.252Z,-5.90
2022-12-15T05:44:52.758Z,-5.84
2022-12-15T05:47:14.230Z,-5.92
2022-12-15T05:49:35.789Z,-6.20
2022-12-15T05:51:57.364Z,-6.22
2022-12-15T05:54:19.766Z,-6.11
2022-12-15T05:56:41.672Z,-6.02
2022-12-15T05:59:04.270Z,-6.03
2022-12-15T06:01:26.857Z,-6.00
2022-12-15T06:03:48.434Z,-5.96
2022-12-15T06:06:12.035Z,-5.94
2022-12-15T06:08:35.997Z,-5.93
2022-12-15T06:10:57.552Z,-5.92
2022-12-15T06:13:19.114Z,-6.06
2022-12-15T06:15:40.565Z,-5.94
2022-12-15T06:18:02.064Z,-5.93
2022-12-15T06:20:24.290Z,-5.93
2022-12-15T06:22:49.883Z,-6.01
2022-12-15T06:25:11.690Z,-6.24
2022-12-15T06:27:36.208Z,-6.10
2022-12-15T06:29:57.688Z,-6.21
2022-12-15T06:32:21.277Z,-6.16
2022-12-15T06:34:42.814Z,-6.23
2022-12-15T06:37:04.554Z,-6.11
2022-12-15T06:39:26.023Z,-6.07
2022-12-15T06:41:47.568Z,-6.01
2022-12-15T06:44:13.231Z,-6.25
2022-12-15T06:46:35.185Z,-6.41
2022-12-15T06:48:57.537Z,-6.33
2022-12-15T06:51:19.469Z,-6.31
2022-12-15T06:53:42.674Z,-6.45
2022-12-15T06:56:07.376Z,-6.45
2022-12-15T06:58:28.891Z,-6.52
2022-12-15T07:00:50.354Z,-6.42
2022-12-15T07:03:17.268Z,-6.38
2022-12-15T07:05:38.827Z,-6.37
2022-12-15T07:08:00.302Z,-6.31
2022-12-15T07:10:21.724Z,-6.29
2022-12-15T07:12:43.188Z,-6.26
2022-12-15T07:15:05.300Z,-6.26
2022-12-15T07:17:26.943Z,-6.28
2022-12-15T07:19:48.364Z,-6.48
2022-12-15T07:22:09.813Z,-6.53
2022-12-15T07:24:31.324Z,-6.58
2022-12-15T07:26:52.775Z,-6.45
2022-12-15T07:29:19.559Z,-6.43
2022-12-15T07:31:44.472Z,-6.41
2022-12-15T07:34:05.999Z,-6.33
2022-12-15T07:36:30.319Z,-6.34
2022-12-15T07:38:52.102Z,-6.29
2022-12-15T07:41:13.701Z,-6.31
2022-12-15T07:43:36.246Z,-6.30
2022-12-15T07:45:58.391Z,-6.27
2022-12-15T07:48:20.591Z,-6.37
2022-12-15T07:50:42.017Z,-6.46
2022-12-15T07:53:03.485Z,-6.70
2022-12-15T07:55:50.050Z,-6.46
2022-12-15T07:58:06.991Z,-6.36
2022-12-15T08:00:28.890Z,-6.30
2022-12-15T08:02:50.545Z,-6.22
2022-12-15T08:05:12.190Z,-6.25
2022-12-15T08:07:33.710Z,-6.34
2022-12-15T08:09:55.176Z,-6.38
2022-12-15T08:12:17.143Z,-6.41
2022-12-15T08:14:38.570Z,-6.32
2022-12-15T08:17:00.190Z,-6.18
2022-12-15T08:19:21.719Z,-6.35
2022-12-15T08:21:45.499Z,-6.43
2022-12-15T08:24:08.328Z,-6.23
2022-12-15T08:26:31.135Z,-6.10
2022-12-15T08:28:53.019Z,-5.99
2022-12-15T08:31:17.596Z,-5.85
2022-12-15T08:33:39.482Z,-5.87
2022-12-15T08:36:03.184Z,-5.90
2022-12-15T08:38:24.648Z,-5.88
2022-12-15T08:40:46.130Z,-5.67
2022-12-15T08:43:07.601Z,-5.52
2022-12-15T08:45:29.090Z,-5.43
2022-12-15T08:47:50.549Z,-5.34
2022-12-15T08:50:12.041Z,-5.59
2022-12-15T08:52:34.001Z,-5.64
2022-12-15T08:54:55.523Z,-5.58
2022-12-15T08:57:16.969Z,-5.59
2022-12-15T08:59:38.490Z,-5.80
2022-12-15T09:02:00.550Z,-5.51
2022-12-15T09:04:22.116Z,-5.43
2022-12-15T09:06:44.180Z,-5.37
2022-12-15T09:09:12.105Z,-5.19
2022-12-15T09:11:34.259Z,-5.06
2022-12-15T09:13:56.102Z,-5.01
2022-12-15T09:16:19.145Z,-4.99
2022-12-15T09:18:46.731Z,-4.95
2022-12-15T09:21:08.359Z,-4.84
2022-12-15T09:23:30.383Z,-4.77
2022-12-15T09:25:59.696Z,-4.75
2022-12-15T09:28:21.199Z,-4.56
2022-12-15T09:30:42.847Z,-4.49
2022-12-15T09:33:04.511Z,-4.38
2022-12-15T09:35:28.967Z,-4.35
2022-12-15T09:37:52.048Z,-4.29
2022-12-15T09:40:13.935Z,-4.20
2022-12-15T09:42:35.509Z,-4.17
2022-12-15T09:45:03.115Z,-4.12
2022-12-15T09:47:35.018Z,-4.06
2022-12-15T09:49:58.369Z,-4.01
2022-12-15T09:52:25.679Z,-3.95
2022-12-15T09:54:47.394Z,-3.96
2022-12-15T09:57:27.129Z,-3.90
2022-12-15T10:00:08.205Z,-3.84
2022-12-15T10:02:41.779Z,-3.83
2022-12-15T10:05:50.147Z,-3.77
2022-12-15T10:08:13.652Z,-3.74
2022-12-15T10:10:43.536Z,-3.68
2022-12-15T10:13:15.477Z,-3.50
2022-12-15T10:15:53.243Z,-3.40
2022-12-15T10:18:17.669Z,-3.18
2022-12-15T10:20:39.446Z,-3.01
2022-12-15T10:23:12.356Z,-2.90
2022-12-15T10:25:33.832Z,-2.73
2022-12-15T10:28:13.739Z,-2.65
2022-12-15T10:30:39.471Z,-2.55
2022-12-15T10:33:19.257Z,-2.48
2022-12-15T10:35:43.928Z,-2.44
2022-12-15T10:38:24.207Z,-2.74
2022-12-15T10:41:07.592Z,-3.01
2022-12-15T10:43:35.692Z,-3.18
2022-12-15T10:46:02.036Z,-3.34
2022-12-15T10:48:23.537Z,-3.39
2022-12-15T10:50:45.014Z,-3.22
2022-12-15T10:53:09.503Z,-3.11
2022-12-15T10:55:43.841Z,-2.93
2022-12-15T10:58:20.954Z,-2.84
2022-12-15T11:00:42.451Z,-2.82
2022-12-15T11:03:21.834Z,-2.66
2022-12-15T11:05:52.145Z,-2.69
2022-12-15T11:08:16.341Z,-2.50
2022-12-15T11:11:16.267Z,-2.54
2022-12-15T11:13:38.420Z,-2.70
2022-12-15T11:16:11.003Z,-2.59
2022-12-15T11:18:38.706Z,-2.35
2022-12-15T11:21:21.573Z,-2.16
2022-12-15T11:24:12.116Z,-2.28
2022-12-15T11:26:51.021Z,-2.25
2022-12-15T11:29:34.528Z,-2.27
2022-12-15T11:32:01.435Z,-1.99
2022-12-15T11:34:37.711Z,-1.91
2022-12-15T11:37:20.321Z,-1.96
2022-12-15T11:39:56.941Z,-1.91
2022-12-15T11:42:38.780Z,-1.78
2022-12-15T11:45:24.613Z,-1.84
2022-12-15T11:47:55.200Z,-1.83
2022-12-15T11:50:28.661Z,-1.73
2022-12-15T11:52:54.877Z,-1.52
2022-12-15T11:55:47.044Z,-1.61
2022-12-15T11:58:42.962Z,-1.70
2022-12-15T12:01:16.250Z,-1.46
2022-12-15T12:03:55.715Z,-1.43
2022-12-15T12:06:25.068Z,-1.34
2022-12-15T12:09:15.786Z,-1.32
2022-12-15T12:11:56.072Z,-1.39
2022-12-15T12:14:38.998Z,-1.30
2022-12-15T12:17:10.359Z,-1.23
2022-12-15T12:19:40.390Z,-1.11
2022-12-15T12:22:27.029Z,-1.01
2022-12-15T12:24:56.630Z,-1.30
2022-12-15T12:27:29.750Z,-1.25
2022-12-15T12:29:55.438Z,-1.16
2022-12-15T12:32:40.428Z,-1.22
2022-12-15T12:35:31.249Z,-1.14
2022-12-15T12:38:03.316Z,-0.94
2022-12-15T12:40:36.999Z,-1.13
2022-12-15T12:42:59.921Z,-1.16
2022-12-15T12:45:27.669Z,-1.15
2022-12-15T12:47:51.514Z,-1.01
2022-12-15T12:50:16.286Z,-0.97
2022-12-15T12:52:38.120Z,-0.95
2022-12-15T12:55:03.227Z,-0.91
2022-12-15T12:57:35.245Z,-0.84
2022-12-15T13:00:00.824Z,-0.68
2022-12-15T13:02:24.636Z,-0.79
2022-12-15T13:05:04.425Z,-0.84
2022-12-15T13:07:32.066Z,-0.65
2022-12-15T13:10:08.954Z,-0.35
2022-12-15T13:15:29.982Z,-0.12
2022-12-15T13:17:55.727Z,-0.38
2022-12-15T13:20:29.647Z,-0.61
2022-12-15T13:22:51.872Z,-0.57
2022-12-15T13:25:37.854Z,-0.58
2022-12-15T13:28:02.338Z,-0.57
2022-12-15T13:30:24.046Z,-0.58
2022-12-15T13:32:47.327Z,-0.41
2022-12-15T13:35:11.961Z,-0.46
2022-12-15T13:37:53.757Z,-0.25
2022-12-15T13:40:26.094Z,-0.21
2022-12-15T13:42:56.271Z,-0.08
2022-12-15T13:45:33.080Z,0.05
2022-12-15T13:47:56.193Z,0.03
2022-12-15T13:50:31.044Z,0.05
2022-12-15T13:55:46.207Z,0.24
2022-12-15T13:58:16.866Z,0.20
2022-12-15T14:00:39.588Z,0.11
2022-12-15T14:03:11.774Z,0.14
2022-12-15T14:05:33.449Z,-0.06
2022-12-15T14:07:56.156Z,-0.18
2022-12-15T14:10:21.961Z,-0.23
2022-12-15T14:12:45.107Z,-0.23
2022-12-15T14:15:14.509Z,0.00
2022-12-15T14:17:36.608Z,0.13
2022-12-15T14:19:58.026Z,0.05
2022-12-15T14:22:28.635Z,0.14
2022-12-15T14:24:52.002Z,0.05
2022-12-15T14:27:31.621Z,0.12
2022-12-15T14:30:35.525Z,0.21
2022-12-15T14:33:10.901Z,0.22
2022-12-15T14:35:44.114Z,0.22
2022-12-15T14:38:24.191Z,0.24
2022-12-15T14:40:49.274Z,0.12
2022-12-15T14:43:19.171Z,0.15
2022-12-15T14:45:40.853Z,0.16
2022-12-15T14:50:51.255Z,0.17
2022-12-15T14:53:17.058Z,-0.08
2022-12-15T14:55:39.511Z,-0.22
2022-12-15T14:58:02.458Z,-0.29
2022-12-15T15:00:31.641Z,-0.16
2022-12-15T15:03:18.336Z,-0.27
2022-12-15T15:06:11.020Z,-0.40
2022-12-15T15:08:43.063Z,-0.63
2022-12-15T15:11:20.273Z,-0.63
2022-12-15T15:13:41.926Z,-0.72
2022-12-15T15:16:06.973Z,-0.71
2022-12-15T15:18:29.840Z,-0.75
2022-12-15T15:21:03.351Z,-0.74
2022-12-15T15:23:24.807Z,-0.79
2022-12-15T15:25:51.984Z,-0.91
2022-12-15T15:28:19.222Z,-0.90
2022-12-15T15:30:43.940Z,-0.88
2022-12-15T15:33:08.828Z,-1.00
2022-12-15T15:35:33.324Z,-1.08
2022-12-15T15:38:02.261Z,-1.12
2022-12-15T15:40:23.955Z,-1.28
2022-12-15T15:42:45.811Z,-1.31
2022-12-15T15:45:14.720Z,-1.17
2022-12-15T15:47:36.829Z,-1.22
2022-12-15T15:49:59.907Z,-1.40
2022-12-15T15:52:22.319Z,-1.41
2022-12-15T15:54:44.693Z,-1.45
2022-12-15T15:57:06.158Z,-1.46
2022-12-15T15:59:28.981Z,-1.65
2022-12-15T16:01:55.885Z,-1.66
2022-12-15T16:04:17.585Z,-1.61
2022-12-15T16:06:45.120Z,-1.72
2022-12-15T16:09:12.739Z,-1.63
2022-12-15T16:11:35.242Z,-1.68
2022-12-15T16:13:56.912Z,-1.70
2022-12-15T16:16:21.529Z,-1.80
2022-12-15T16:18:43.047Z,-1.93
2022-12-15T16:21:04.565Z,-2.00
2022-12-15T16:23:29.119Z,-1.95
2022-12-15T16:25:56.729Z,-1.93
2022-12-15T16:28:21.502Z,-1.95
2022-12-15T16:30:43.696Z,-1.99
2022-12-15T16:33:05.186Z,-2.09
2022-12-15T16:35:26.785Z,-2.27
2022-12-15T16:37:49.230Z,-2.31
2022-12-15T16:40:18.098Z,-2.49
2022-12-15T16:42:39.616Z,-2.49
2022-12-15T16:45:02.232Z,-2.45
2022-12-15T16:47:23.705Z,-2.52
2022-12-15T16:49:45.233Z,-2.92
2022-12-15T16:52:18.002Z,-2.79
2022-12-15T16:54:40.132Z,-2.75
2022-12-15T16:57:02.108Z,-2.78
2022-12-15T16:59:34.892Z,-2.93
2022-12-15T17:01:57.722Z,-3.00
2022-12-15T17:04:19.547Z,-3.00
2022-12-15T17:06:40.998Z,-2.98
2022-12-15T17:09:02.735Z,-2.99
2022-12-15T17:11:26.613Z,-2.98
2022-12-15T17:13:51.311Z,-3.24
2022-12-15T17:16:16.015Z,-3.28
2022-12-15T17:18:37.539Z,-3.17
2022-12-15T17:21:15.818Z,-3.18
2022-12-15T17:23:37.361Z,-3.58
2022-12-15T17:26:22.660Z,-3.74
2022-12-15T17:28:40.741Z,-3.79
2022-12-15T17:31:02.797Z,-3.94
2022-12-15T17:33:27.434Z,-3.88
2022-12-15T17:35:51.758Z,-4.01
2022-12-15T17:38:16.635Z,-4.01
2022-12-15T17:40:38.107Z,-3.95
2022-12-15T17:42:59.577Z,-4.05
2022-12-15T17:45:23.781Z,-4.05
2022-12-15T17:47:45.692Z,-3.94
2022-12-15T17:50:07.753Z,-4.04
2022-12-15T17:52:34.416Z,-4.13
2022-12-15T17:54:56.692Z,-4.34
2022-12-15T17:57:18.387Z,-4.47
2022-12-15T17:59:39.888Z,-4.34
2022-12-15T18:02:42.688Z,-4.34
2022-12-15T18:05:04.775Z,-4.37
2022-12-15T18:07:26.284Z,-4.34
2022-12-15T18:09:49.582Z,-4.34
2022-12-15T18:12:29.696Z,-4.32
2022-12-15T18:14:52.009Z,-4.30
2022-12-15T18:17:14.252Z,-4.37
2022-12-15T18:19:35.708Z,-4.50
2022-12-15T18:21:57.165Z,-4.58
2022-12-15T18:24:21.535Z,-4.60
2022-12-15T18:26:43.152Z,-4.42
2022-12-15T18:29:17.587Z,-4.57
2022-12-15T18:31:39.187Z,-4.60
2022-12-15T18:34:04.725Z,-4.62
2022-12-15T18:36:26.637Z,-4.69
2022-12-15T18:38:48.874Z,-4.70
2022-12-15T18:41:15.169Z,-5.08
2022-12-15T18:43:36.742Z,-4.98
2022-12-15T18:45:58.904Z,-4.91
2022-12-15T18:48:24.801Z,-4.96
2022-12-15T18:50:48.461Z,-5.04
2022-12-15T18:53:17.607Z,-4.97
2022-12-15T18:55:39.106Z,-5.10
2022-12-15T18:58:01.772Z,-5.25
2022-12-15T19:00:30.267Z,-5.42
2022-12-15T19:02:53.063Z,-5.59
2022-12-15T19:05:28.412Z,-5.38
2022-12-15T19:07:49.900Z,-5.33
2022-12-15T19:10:14.543Z,-5.43
2022-12-15T19:12:36.037Z,-5.55
2022-12-15T19:14:57.499Z,-5.75
2022-12-15T19:17:41.979Z,-5.51
2022-12-15T19:20:33.428Z,-5.47
2022-12-15T19:22:54.943Z,-5.37
2022-12-15T19:25:26.692Z,-5.43
2022-12-15T19:27:48.268Z,-5.52
2022-12-15T19:30:18.359Z,-5.56
2022-12-15T19:32:39.851Z,-5.62
2022-12-15T19:35:01.346Z,-5.55
2022-12-15T19:37:29.473Z,-5.64
2022-12-15T19:39:52.028Z,-5.71
2022-12-15T19:42:23.957Z,-6.03
2022-12-15T19:44:45.539Z,-5.93
2022-12-15T19:47:13.631Z,-5.81
2022-12-15T19:49:35.192Z,-5.80
2022-12-15T19:51:56.682Z,-5.86
2022-12-15T19:54:21.297Z,-6.05
2022-12-15T19:56:42.829Z,-6.06
2022-12-15T19:59:04.335Z,-5.95
2022-12-15T20:01:26.018Z,-5.90
2022-12-15T20:03:50.331Z,-5.93
2022-12-15T20:06:25.663Z,-5.95
2022-12-15T20:08:50.203Z,-5.95
2022-12-15T20:11:21.047Z,-6.08
2022-12-15T20:13:42.538Z,-5.97
2022-12-15T20:16:04.160Z,-6.13
2022-12-15T20:18:25.639Z,-6.06
2022-12-15T20:20:48.741Z,-6.04
2022-12-15T20:23:19.884Z,-6.06
2022-12-15T20:25:42.559Z,-6.21
2022-12-15T20:28:06.848Z,-6.55
2022-12-15T20:30:32.691Z,-6.49
2022-12-15T20:32:54.576Z,-6.45
2022-12-15T20:35:17.643Z,-6.40
2022-12-15T20:37:39.177Z,-6.34
2022-12-15T20:40:00.677Z,-6.28
2022-12-15T20:42:22.686Z,-6.37
2022-12-15T20:44:44.264Z,-6.44
2022-12-15T20:47:06.070Z,-6.35
2022-12-15T20:49:28.260Z,-6.36
2022-12-15T20:51:50.689Z,-6.45
2022-12-15T20:54:17.724Z,-6.40
2022-12-15T20:56:39.265Z,-6.33
2022-12-15T20:59:00.762Z,-6.35
2022-12-15T21:01:28.300Z,-6.35
2022-12-15T21:03:53.403Z,-6.42
2022-12-15T21:06:14.957Z,-6.67
2022-12-15T21:08:36.485Z,-6.54
2022-12-15T21:11:05.719Z,-6.47
2022-12-15T21:13:30.977Z,-6.91
2022-12-15T21:15:53.630Z,-6.74
2022-12-15T21:20:58.884Z,-6.62
2022-12-15T21:23:24.870Z,-6.81
2022-12-15T21:25:47.375Z,-6.82
2022-12-15T21:28:11.890Z,-6.75
2022-12-15T21:30:35.050Z,-6.83
2022-12-15T21:32:56.524Z,-6.72
2022-12-15T21:35:19.444Z,-6.81
2022-12-15T21:37:42.734Z,-7.07
2022-12-15T21:40:05.248Z,-6.91
2022-12-15T21:42:27.338Z,-6.88
2022-12-15T21:44:48.856Z,-6.90
2022-12-15T21:47:24.651Z,-6.95
2022-12-15T21:49:46.114Z,-6.83
2022-12-15T21:52:09.470Z,-6.94
2022-12-15T21:54:33.043Z,-6.95
2022-12-15T21:56:54.529Z,-6.88
2022-12-15T21:59:22.517Z,-7.07
2022-12-15T22:01:44.336Z,-7.21
2022-12-15T22:04:19.148Z,-7.10
2022-12-15T22:06:45.870Z,-7.08
2022-12-15T22:09:11.157Z,-7.13
2022-12-15T22:11:32.635Z,-7.04
2022-12-15T22:13:56.707Z,-7.15
2022-12-15T22:16:18.359Z,-7.14
2022-12-15T22:18:39.885Z,-7.18
2022-12-15T22:21:01.366Z,-7.09
2022-12-15T22:23:22.848Z,-7.22
2022-12-15T22:25:45.184Z,-7.24
2022-12-15T22:28:17.773Z,-7.15
2022-12-15T22:30:39.294Z,-7.08
2022-12-15T22:33:02.433Z,-7.12
2022-12-15T22:35:26.508Z,-7.18
2022-12-15T22:37:49.825Z,-7.05
2022-12-15T22:40:13.416Z,-7.13
2022-12-15T22:42:35.850Z,-7.03
2022-12-15T22:44:57.353Z,-7.01
2022-12-15T22:47:18.909Z,-7.06
2022-12-15T22:49:41.181Z,-7.26
2022-12-15T22:52:03.404Z,-7.11
2022-12-15T22:54:27.253Z,-7.04
2022-12-15T22:57:19.965Z,-7.12
2022-12-15T22:59:47.097Z,-7.02
2022-12-15T23:02:09.628Z,-7.05
2022-12-15T23:04:31.959Z,-7.02
2022-12-15T23:06:53.503Z,-6.97
2022-12-15T23:09:16.445Z,-6.91
2022-12-15T23:11:38.150Z,-7.18
2022-12-15T23:13:59.666Z,-7.28
2022-12-15T23:16:21.738Z,-7.38
2022-12-15T23:18:43.502Z,-7.30
2022-12-15T23:21:05.256Z,-7.24
2022-12-15T23:23:28.057Z,-7.11
2022-12-15T23:25:49.538Z,-7.08
2022-12-15T23:28:11.031Z,-7.07
2022-12-15T23:30:32.615Z,-7.33
2022-12-15T23:32:57.044Z,-7.18
2022-12-15T23:35:18.832Z,-7.23
2022-12-15T23:37:40.720Z,-7.50
2022-12-15T23:40:02.225Z,-7.51
2022-12-15T23:42:23.715Z,-7.43
2022-12-15T23:44:45.238Z,-7.36
2022-12-15T23:47:07.926Z,-7.32
2022-12-15T23:49:30.109Z,-7.27
2022-12-15T23:51:51.560Z,-7.21
2022-12-15T23:54:13.979Z,-7.17
2022-12-15T23:56:35.562Z,-7.16
2022-12-15T23:58:58.816Z,-7.34
